sensor_id;sensor_type;location;lat;lon;timestamp;pressure;altitude;pressure_sealevel;temperature;humidity
71126;BME280;58785;55.566;38.058;2023-10-08T00:00:07;96994.38;;;8.11;74.93
71126;BME280;58785;55.566;38.058;2023-10-08T00:02:52;97005.63;;;8.06;75.38
71126;BME280;58785;55.566;38.058;2023-10-08T00:05:21;96999.09;;;8.09;74.88
71126;BME280;58785;55.566;38.058;2023-10-08T00:07:47;96995.44;;;8.03;74.73
71126;BME280;58785;55.566;38.058;2023-10-08T00:10:15;96998.47;;;8.00;74.68
71126;BME280;58785;55.566;38.058;2023-10-08T00:12:41;97002.16;;;7.99;74.53
71126;BME280;58785;55.566;38.058;2023-10-08T00:15:07;96999.94;;;7.96;74.45
71126;BME280;58785;55.566;38.058;2023-10-08T00:17:36;97006.06;;;7.97;74.37
71126;BME280;58785;55.566;38.058;2023-10-08T00:20:02;97001.13;;;8.00;74.64
71126;BME280;58785;55.566;38.058;2023-10-08T00:22:31;97004.00;;;7.99;74.58
71126;BME280;58785;55.566;38.058;2023-10-08T00:25:02;97001.34;;;7.99;74.40
71126;BME280;58785;55.566;38.058;2023-10-08T00:27:36;97008.91;;;7.95;73.73
71126;BME280;58785;55.566;38.058;2023-10-08T00:30:05;97006.06;;;7.90;73.85
71126;BME280;58785;55.566;38.058;2023-10-08T00:32:47;97009.53;;;7.91;73.58
71126;BME280;58785;55.566;38.058;2023-10-08T00:35:14;97007.28;;;7.88;73.51
71126;BME280;58785;55.566;38.058;2023-10-08T00:37:41;97012.81;;;7.86;73.61
71126;BME280;58785;55.566;38.058;2023-10-08T00:40:07;97014.66;;;7.86;73.47
71126;BME280;58785;55.566;38.058;2023-10-08T00:42:48;97011.19;;;7.85;73.37
71126;BME280;58785;55.566;38.058;2023-10-08T00:45:22;97021.41;;;7.82;72.84
71126;BME280;58785;55.566;38.058;2023-10-08T00:47:49;97016.28;;;7.80;72.82
71126;BME280;58785;55.566;38.058;2023-10-08T00:50:23;97008.53;;;7.78;72.86
71126;BME280;58785;55.566;38.058;2023-10-08T00:52:57;97024.88;;;7.82;73.17
71126;BME280;58785;55.566;38.058;2023-10-08T00:55:27;97008.53;;;7.78;73.24
71126;BME280;58785;55.566;38.058;2023-10-08T00:58:02;97016.91;;;7.82;72.63
71126;BME280;58785;55.566;38.058;2023-10-08T01:00:38;97014.25;;;7.75;72.30
71126;BME280;58785;55.566;38.058;2023-10-08T01:03:09;97015.66;;;7.78;72.22
71126;BME280;58785;55.566;38.058;2023-10-08T01:05:43;97009.38;;;7.72;72.51
71126;BME280;58785;55.566;38.058;2023-10-08T01:08:16;97006.50;;;7.67;72.81
71126;BME280;58785;55.566;38.058;2023-10-08T01:11:16;97022.41;;;7.67;72.49
71126;BME280;58785;55.566;38.058;2023-10-08T01:13:42;97026.91;;;7.67;73.09
71126;BME280;58785;55.566;38.058;2023-10-08T01:16:09;97001.19;;;7.61;73.42
71126;BME280;58785;55.566;38.058;2023-10-08T01:18:41;97002.63;;;7.57;72.40
71126;BME280;58785;55.566;38.058;2023-10-08T01:21:11;97007.72;;;7.58;72.88
71126;BME280;58785;55.566;38.058;2023-10-08T01:23:47;97003.03;;;7.60;72.63
71126;BME280;58785;55.566;38.058;2023-10-08T01:26:14;97007.13;;;7.63;73.31
71126;BME280;58785;55.566;38.058;2023-10-08T01:28:48;97005.91;;;7.59;73.05
71126;BME280;58785;55.566;38.058;2023-10-08T01:31:16;97003.25;;;7.52;72.64
71126;BME280;58785;55.566;38.058;2023-10-08T01:33:42;97015.09;;;7.56;72.34
71126;BME280;58785;55.566;38.058;2023-10-08T01:36:16;97011.41;;;7.57;72.12
71126;BME280;58785;55.566;38.058;2023-10-08T01:38:42;97004.69;;;7.55;71.86
71126;BME280;58785;55.566;38.058;2023-10-08T01:41:13;97014.28;;;7.56;72.08
71126;BME280;58785;55.566;38.058;2023-10-08T01:44:01;97005.28;;;7.57;72.17
71126;BME280;58785;55.566;38.058;2023-10-08T01:46:31;97009.16;;;7.54;72.30
71126;BME280;58785;55.566;38.058;2023-10-08T01:48:58;97006.72;;;7.46;71.51
71126;BME280;58785;55.566;38.058;2023-10-08T01:51:39;97017.91;;;7.41;71.56
71126;BME280;58785;55.566;38.058;2023-10-08T01:54:12;97015.69;;;7.38;71.57
71126;BME280;58785;55.566;38.058;2023-10-08T01:56:41;97001.63;;;7.38;72.21
71126;BME280;58785;55.566;38.058;2023-10-08T01:59:13;97011.41;;;7.24;71.43
71126;BME280;58785;55.566;38.058;2023-10-08T02:01:43;97014.44;;;7.21;72.22
71126;BME280;58785;55.566;38.058;2023-10-08T02:04:14;97020.56;;;7.15;72.63
71126;BME280;58785;55.566;38.058;2023-10-08T02:06:46;97009.75;;;7.03;72.26
71126;BME280;58785;55.566;38.058;2023-10-08T02:09:13;97027.06;;;7.06;71.68
71126;BME280;58785;55.566;38.058;2023-10-08T02:11:48;97023.81;;;7.04;72.21
71126;BME280;58785;55.566;38.058;2023-10-08T02:14:20;97016.44;;;6.99;71.87
71126;BME280;58785;55.566;38.058;2023-10-08T02:16:50;97005.25;;;6.97;72.38
71126;BME280;58785;55.566;38.058;2023-10-08T02:19:23;97021.38;;;7.02;72.34
71126;BME280;58785;55.566;38.058;2023-10-08T02:22:06;97016.44;;;6.99;72.03
71126;BME280;58785;55.566;38.058;2023-10-08T02:24:36;97019.94;;;7.06;71.47
71126;BME280;58785;55.566;38.058;2023-10-08T02:27:04;97019.31;;;7.11;72.00
71126;BME280;58785;55.566;38.058;2023-10-08T02:29:38;97013.63;;;7.14;71.83
71126;BME280;58785;55.566;38.058;2023-10-08T02:32:05;97018.31;;;7.12;71.87
71126;BME280;58785;55.566;38.058;2023-10-08T02:34:32;97017.31;;;7.13;71.56
71126;BME280;58785;55.566;38.058;2023-10-08T02:36:58;97016.06;;;7.09;71.66
71126;BME280;58785;55.566;38.058;2023-10-08T02:39:25;97024.25;;;7.14;71.15
71126;BME280;58785;55.566;38.058;2023-10-08T02:41:52;97009.53;;;7.05;71.80
71126;BME280;58785;55.566;38.058;2023-10-08T02:44:22;97014.63;;;7.06;71.18
71126;BME280;58785;55.566;38.058;2023-10-08T02:46:48;97022.78;;;7.11;71.31
71126;BME280;58785;55.566;38.058;2023-10-08T02:49:20;97022.19;;;7.09;70.64
71126;BME280;58785;55.566;38.058;2023-10-08T02:51:50;97025.44;;;7.11;70.99
71126;BME280;58785;55.566;38.058;2023-10-08T02:54:18;97022.38;;;7.08;70.88
71126;BME280;58785;55.566;38.058;2023-10-08T02:56:49;97012.59;;;7.08;71.28
71126;BME280;58785;55.566;38.058;2023-10-08T02:59:23;97019.72;;;7.08;70.79
71126;BME280;58785;55.566;38.058;2023-10-08T03:01:50;97035.22;;;7.11;70.48
71126;BME280;58785;55.566;38.058;2023-10-08T03:04:22;97006.09;;;7.04;71.08
71126;BME280;58785;55.566;38.058;2023-10-08T03:06:50;97025.03;;;7.08;71.02
71126;BME280;58785;55.566;38.058;2023-10-08T03:09:21;97006.25;;;6.96;70.70
71126;BME280;58785;55.566;38.058;2023-10-08T03:12:02;97028.28;;;7.03;70.52
71126;BME280;58785;55.566;38.058;2023-10-08T03:14:34;97025.00;;;7.01;71.04
71126;BME280;58785;55.566;38.058;2023-10-08T03:17:13;97015.22;;;6.95;70.47
71126;BME280;58785;55.566;38.058;2023-10-08T03:19:46;97026.44;;;6.97;70.61
71126;BME280;58785;55.566;38.058;2023-10-08T03:22:12;97014.81;;;6.91;70.25
71126;BME280;58785;55.566;38.058;2023-10-08T03:24:38;97018.47;;;6.90;70.51
71126;BME280;58785;55.566;38.058;2023-10-08T03:27:05;97015.22;;;6.88;70.36
71126;BME280;58785;55.566;38.058;2023-10-08T03:29:34;97027.88;;;6.93;70.89
71126;BME280;58785;55.566;38.058;2023-10-08T03:32:12;97022.78;;;6.91;70.67
71126;BME280;58785;55.566;38.058;2023-10-08T03:34:48;97021.94;;;6.91;70.99
71126;BME280;58785;55.566;38.058;2023-10-08T03:37:16;97017.66;;;6.90;70.39
71126;BME280;58785;55.566;38.058;2023-10-08T03:39:55;97016.63;;;6.84;70.88
71126;BME280;58785;55.566;38.058;2023-10-08T03:42:40;97018.25;;;6.85;70.92
71126;BME280;58785;55.566;38.058;2023-10-08T03:45:07;97011.34;;;6.84;71.21
71126;BME280;58785;55.566;38.058;2023-10-08T03:47:41;97010.31;;;6.85;70.69
71126;BME280;58785;55.566;38.058;2023-10-08T03:50:13;97024.78;;;6.89;70.93
71126;BME280;58785;55.566;38.058;2023-10-08T03:52:43;97015.00;;;6.83;70.77
71126;BME280;58785;55.566;38.058;2023-10-08T03:55:10;97015.78;;;6.77;70.56
71126;BME280;58785;55.566;38.058;2023-10-08T03:57:46;97021.09;;;6.77;71.69
71126;BME280;58785;55.566;38.058;2023-10-08T04:00:23;97019.22;;;6.71;71.25
71126;BME280;58785;55.566;38.058;2023-10-08T04:02:57;97029.22;;;6.69;71.49
71126;BME280;58785;55.566;38.058;2023-10-08T04:05:29;97021.88;;;6.65;71.94
71126;BME280;58785;55.566;38.058;2023-10-08T04:08:10;96997.59;;;6.54;72.38
71126;BME280;58785;55.566;38.058;2023-10-08T04:10:44;97031.03;;;6.62;72.78
71126;BME280;58785;55.566;38.058;2023-10-08T04:13:13;97025.31;;;6.58;72.12
71126;BME280;58785;55.566;38.058;2023-10-08T04:15:42;97020.00;;;6.58;72.35
71126;BME280;58785;55.566;38.058;2023-10-08T04:18:11;97023.25;;;6.54;72.53
71126;BME280;58785;55.566;38.058;2023-10-08T04:20:39;97019.34;;;6.50;73.31
71126;BME280;58785;55.566;38.058;2023-10-08T04:23:08;97011.22;;;6.45;73.37
71126;BME280;58785;55.566;38.058;2023-10-08T04:25:47;97022.19;;;6.42;72.82
71126;BME280;58785;55.566;38.058;2023-10-08T04:28:22;97009.59;;;6.44;73.14
71126;BME280;58785;55.566;38.058;2023-10-08T04:30:48;97023.19;;;6.41;73.49
71126;BME280;58785;55.566;38.058;2023-10-08T04:33:16;97038.50;;;6.45;73.54
71126;BME280;58785;55.566;38.058;2023-10-08T04:35:46;97026.06;;;6.46;74.02
71126;BME280;58785;55.566;38.058;2023-10-08T04:38:23;97034.63;;;6.48;73.75
71126;BME280;58785;55.566;38.058;2023-10-08T04:40:50;97030.59;;;6.52;74.00
71126;BME280;58785;55.566;38.058;2023-10-08T04:43:21;97026.94;;;6.53;74.00
71126;BME280;58785;55.566;38.058;2023-10-08T04:45:52;97029.78;;;6.51;73.68
71126;BME280;58785;55.566;38.058;2023-10-08T04:48:19;97028.56;;;6.54;73.48
71126;BME280;58785;55.566;38.058;2023-10-08T04:50:50;97029.38;;;6.54;73.38
71126;BME280;58785;55.566;38.058;2023-10-08T04:53:33;97029.78;;;6.58;73.64
71126;BME280;58785;55.566;38.058;2023-10-08T04:56:09;97036.31;;;6.62;73.41
71126;BME280;58785;55.566;38.058;2023-10-08T04:58:45;97031.66;;;6.71;73.07
71126;BME280;58785;55.566;38.058;2023-10-08T05:01:17;97026.59;;;6.76;72.89
71126;BME280;58785;55.566;38.058;2023-10-08T05:03:48;97022.31;;;6.81;72.34
71126;BME280;58785;55.566;38.058;2023-10-08T05:06:32;97027.44;;;6.83;72.14
71126;BME280;58785;55.566;38.058;2023-10-08T05:09:06;97037.63;;;6.86;72.46
71126;BME280;58785;55.566;38.058;2023-10-08T05:11:55;97022.34;;;6.88;71.68
71126;BME280;58785;55.566;38.058;2023-10-08T05:14:23;97030.91;;;6.90;71.33
71126;BME280;58785;55.566;38.058;2023-10-08T05:17:03;97026.41;;;6.90;71.55
71126;BME280;58785;55.566;38.058;2023-10-08T05:19:39;97035.59;;;6.95;71.79
71126;BME280;58785;55.566;38.058;2023-10-08T05:22:18;97040.50;;;6.98;71.08
71126;BME280;58785;55.566;38.058;2023-10-08T05:24:49;97038.91;;;7.03;70.60
71126;BME280;58785;55.566;38.058;2023-10-08T05:27:41;97039.28;;;7.07;70.26
71126;BME280;58785;55.566;38.058;2023-10-08T05:30:23;97049.06;;;7.00;70.53
71126;BME280;58785;55.566;38.058;2023-10-08T05:33:20;97054.56;;;6.98;69.90
71126;BME280;58785;55.566;38.058;2023-10-08T05:36:10;97047.84;;;6.96;70.36
71126;BME280;58785;55.566;38.058;2023-10-08T05:38:45;97045.63;;;7.06;70.15
71126;BME280;58785;55.566;38.058;2023-10-08T05:41:25;97061.91;;;7.09;70.65
71126;BME280;58785;55.566;38.058;2023-10-08T05:43:57;97045.41;;;7.07;70.32
71126;BME280;58785;55.566;38.058;2023-10-08T05:46:42;97049.28;;;7.11;70.03
71126;BME280;58785;55.566;38.058;2023-10-08T05:49:34;97047.66;;;7.10;70.22
71126;BME280;58785;55.566;38.058;2023-10-08T05:52:00;97056.41;;;7.11;70.26
71126;BME280;58785;55.566;38.058;2023-10-08T05:54:31;97054.81;;;7.16;70.53
71126;BME280;58785;55.566;38.058;2023-10-08T05:57:07;97060.91;;;7.17;70.68
71126;BME280;58785;55.566;38.058;2023-10-08T05:59:41;97052.13;;;7.10;69.66
71126;BME280;58785;55.566;38.058;2023-10-08T06:02:27;97074.56;;;7.14;70.33
71126;BME280;58785;55.566;38.058;2023-10-08T06:05:05;97070.47;;;7.11;70.43
71126;BME280;58785;55.566;38.058;2023-10-08T06:10:24;97088.00;;;7.06;70.52
71126;BME280;58785;55.566;38.058;2023-10-08T06:13:01;97074.56;;;7.07;70.63
71126;BME280;58785;55.566;38.058;2023-10-08T06:15:45;97086.56;;;7.10;70.11
71126;BME280;58785;55.566;38.058;2023-10-08T06:18:18;97078.63;;;7.10;69.93
71126;BME280;58785;55.566;38.058;2023-10-08T06:20:46;97070.47;;;7.11;70.43
71126;BME280;58785;55.566;38.058;2023-10-08T06:23:13;97061.50;;;7.06;70.02
71126;BME280;58785;55.566;38.058;2023-10-08T06:25:42;97069.66;;;7.04;69.84
71126;BME280;58785;55.566;38.058;2023-10-08T06:28:20;97090.44;;;7.07;70.39
71126;BME280;58785;55.566;38.058;2023-10-08T06:30:48;97084.75;;;7.10;69.90
71126;BME280;58785;55.566;38.058;2023-10-08T06:33:15;97078.84;;;7.15;69.55
71126;BME280;58785;55.566;38.058;2023-10-08T06:35:42;97069.47;;;7.19;69.69
71126;BME280;58785;55.566;38.058;2023-10-08T06:38:30;97064.41;;;7.24;68.96
71126;BME280;58785;55.566;38.058;2023-10-08T06:41:00;97080.31;;;7.31;68.69
71126;BME280;58785;55.566;38.058;2023-10-08T06:43:28;97088.25;;;7.31;68.77
71126;BME280;58785;55.566;38.058;2023-10-08T06:45:54;97081.97;;;7.32;68.33
71126;BME280;58785;55.566;38.058;2023-10-08T06:48:24;97087.47;;;7.37;68.39
71126;BME280;58785;55.566;38.058;2023-10-08T06:50:52;97089.09;;;7.38;68.70
71126;BME280;58785;55.566;38.058;2023-10-08T06:53:35;97087.28;;;7.45;68.33
71126;BME280;58785;55.566;38.058;2023-10-08T06:56:04;97081.97;;;7.45;68.28
71126;BME280;58785;55.566;38.058;2023-10-08T06:58:31;97087.88;;;7.47;67.14
71126;BME280;58785;55.566;38.058;2023-10-08T07:00:58;97081.13;;;7.51;67.86
71126;BME280;58785;55.566;38.058;2023-10-08T07:03:25;97098.50;;;7.60;67.04
71126;BME280;58785;55.566;38.058;2023-10-08T07:05:51;97104.44;;;7.62;67.48
71126;BME280;58785;55.566;38.058;2023-10-08T07:08:25;97100.13;;;7.55;67.65
71126;BME280;58785;55.566;38.058;2023-10-08T07:10:53;97107.03;;;7.49;68.39
71126;BME280;58785;55.566;38.058;2023-10-08T07:13:20;97096.22;;;7.37;68.39
71126;BME280;58785;55.566;38.058;2023-10-08T07:15:52;97098.84;;;7.24;68.07
71126;BME280;58785;55.566;38.058;2023-10-08T07:18:19;97103.94;;;7.19;68.78
71126;BME280;58785;55.566;38.058;2023-10-08T07:20:52;97115.50;;;7.11;68.63
71126;BME280;58785;55.566;38.058;2023-10-08T07:23:28;97120.81;;;7.05;68.86
71126;BME280;58785;55.566;38.058;2023-10-08T07:26:03;97112.88;;;7.11;69.26
71126;BME280;58785;55.566;38.058;2023-10-08T07:28:51;97112.25;;;7.09;68.92
71126;BME280;58785;55.566;38.058;2023-10-08T07:31:23;97092.91;;;7.02;68.49
71126;BME280;58785;55.566;38.058;2023-10-08T07:33:51;97113.72;;;7.12;68.38
71126;BME280;58785;55.566;38.058;2023-10-08T07:36:27;97111.91;;;7.26;68.88
71126;BME280;58785;55.566;38.058;2023-10-08T07:38:54;97123.13;;;7.41;68.15
71126;BME280;58785;55.566;38.058;2023-10-08T07:41:20;97120.47;;;7.41;68.71
71126;BME280;58785;55.566;38.058;2023-10-08T07:43:48;97117.63;;;7.36;67.91
71126;BME280;58785;55.566;38.058;2023-10-08T07:46:25;97130.69;;;7.37;68.56
71126;BME280;58785;55.566;38.058;2023-10-08T07:48:54;97131.09;;;7.41;68.56
71126;BME280;58785;55.566;38.058;2023-10-08T07:51:20;97130.47;;;7.39;68.29
71126;BME280;58785;55.566;38.058;2023-10-08T07:53:51;97117.41;;;7.24;69.00
71126;BME280;58785;55.566;38.058;2023-10-08T07:56:23;97132.50;;;7.30;68.38
71126;BME280;58785;55.566;38.058;2023-10-08T07:58:52;97124.75;;;7.29;68.76
71126;BME280;58785;55.566;38.058;2023-10-08T08:01:23;97125.34;;;7.31;68.96
71126;BME280;58785;55.566;38.058;2023-10-08T08:03:51;97133.75;;;7.34;68.58
71126;BME280;58785;55.566;38.058;2023-10-08T08:06:17;97143.31;;;7.35;68.87
71126;BME280;58785;55.566;38.058;2023-10-08T08:08:43;97150.09;;;7.44;68.51
71126;BME280;58785;55.566;38.058;2023-10-08T08:11:10;97134.59;;;7.55;68.69
71126;BME280;58785;55.566;38.058;2023-10-08T08:13:44;97145.63;;;7.65;68.21
71126;BME280;58785;55.566;38.058;2023-10-08T08:16:11;97156.81;;;7.60;68.83
71126;BME280;58785;55.566;38.058;2023-10-08T08:18:47;97147.44;;;7.44;68.20
71126;BME280;58785;55.566;38.058;2023-10-08T08:21:18;97152.69;;;7.38;68.91
71126;BME280;58785;55.566;38.058;2023-10-08T08:23:46;97141.25;;;7.31;68.55
71126;BME280;58785;55.566;38.058;2023-10-08T08:26:20;97155.34;;;7.38;68.70
71126;BME280;58785;55.566;38.058;2023-10-08T08:28:59;97159.66;;;7.45;67.89
71126;BME280;58785;55.566;38.058;2023-10-08T08:31:28;97137.84;;;7.43;67.91
71126;BME280;58785;55.566;38.058;2023-10-08T08:33:58;97168.63;;;7.44;67.94
71126;BME280;58785;55.566;38.058;2023-10-08T08:36:43;97147.19;;;7.39;67.77
71126;BME280;58785;55.566;38.058;2023-10-08T08:39:12;97163.13;;;7.46;67.71
71126;BME280;58785;55.566;38.058;2023-10-08T08:42:03;97148.03;;;7.33;67.28
71126;BME280;58785;55.566;38.058;2023-10-08T08:44:39;97170.22;;;7.26;68.29
71126;BME280;58785;55.566;38.058;2023-10-08T08:47:15;97177.13;;;7.27;67.79
71126;BME280;58785;55.566;38.058;2023-10-08T08:49:49;97169.84;;;7.35;67.79
71126;BME280;58785;55.566;38.058;2023-10-08T08:52:18;97159.47;;;7.47;67.38
71126;BME280;58785;55.566;38.058;2023-10-08T08:54:44;97155.59;;;7.43;67.29
71126;BME280;58785;55.566;38.058;2023-10-08T08:57:24;97170.06;;;7.47;66.73
71126;BME280;58785;55.566;38.058;2023-10-08T08:59:58;97168.63;;;7.51;66.37
71126;BME280;58785;55.566;38.058;2023-10-08T09:02:25;97182.53;;;7.53;66.29
71126;BME280;58785;55.566;38.058;2023-10-08T09:04:51;97177.66;;;7.63;66.39
71126;BME280;58785;55.566;38.058;2023-10-08T09:07:21;97172.34;;;7.63;66.00
71126;BME280;58785;55.566;38.058;2023-10-08T09:09:48;97176.19;;;7.61;66.52
71126;BME280;58785;55.566;38.058;2023-10-08T09:12:18;97178.47;;;7.64;65.93
71126;BME280;58785;55.566;38.058;2023-10-08T09:14:47;97190.69;;;7.58;66.31
71126;BME280;58785;55.566;38.058;2023-10-08T09:17:19;97194.53;;;7.49;66.06
71126;BME280;58785;55.566;38.058;2023-10-08T09:19:52;97190.22;;;7.41;66.22
71126;BME280;58785;55.566;38.058;2023-10-08T09:22:19;97191.84;;;7.36;65.73
71126;BME280;58785;55.566;38.058;2023-10-08T09:24:45;97187.38;;;7.36;66.61
71126;BME280;58785;55.566;38.058;2023-10-08T09:27:18;97189.22;;;7.42;66.13
71126;BME280;58785;55.566;38.058;2023-10-08T09:29:46;97194.94;;;7.46;66.17
71126;BME280;58785;55.566;38.058;2023-10-08T09:32:13;97193.09;;;7.46;65.83
71126;BME280;58785;55.566;38.058;2023-10-08T09:34:40;97193.91;;;7.47;65.80
71126;BME280;58785;55.566;38.058;2023-10-08T09:37:06;97196.16;;;7.50;66.15
71126;BME280;58785;55.566;38.058;2023-10-08T09:39:37;97185.56;;;7.50;66.27
71126;BME280;58785;55.566;38.058;2023-10-08T09:42:04;97208.59;;;7.43;66.52
71126;BME280;58785;55.566;38.058;2023-10-08T09:44:37;97203.47;;;7.35;66.70
71126;BME280;58785;55.566;38.058;2023-10-08T09:47:11;97211.84;;;7.32;66.44
71126;BME280;58785;55.566;38.058;2023-10-08T09:49:47;97203.44;;;7.28;66.85
71126;BME280;58785;55.566;38.058;2023-10-08T09:52:24;97204.91;;;7.37;67.04
71126;BME280;58785;55.566;38.058;2023-10-08T09:55:00;97209.41;;;7.43;65.86
71126;BME280;58785;55.566;38.058;2023-10-08T09:57:30;97201.44;;;7.37;65.77
71126;BME280;58785;55.566;38.058;2023-10-08T09:59:57;97197.16;;;7.36;65.58
71126;BME280;58785;55.566;38.058;2023-10-08T10:02:23;97200.66;;;7.43;65.70
71126;BME280;58785;55.566;38.058;2023-10-08T10:04:54;97205.53;;;7.46;65.24
71126;BME280;58785;55.566;38.058;2023-10-08T10:07:20;97199.19;;;7.40;65.76
71126;BME280;58785;55.566;38.058;2023-10-08T10:09:51;97205.13;;;7.49;65.03
71126;BME280;58785;55.566;38.058;2023-10-08T10:12:24;97211.69;;;7.53;65.03
71126;BME280;58785;55.566;38.058;2023-10-08T10:14:55;97221.28;;;7.54;64.63
71126;BME280;58785;55.566;38.058;2023-10-08T10:17:25;97222.69;;;7.50;64.72
71126;BME280;58785;55.566;38.058;2023-10-08T10:19:55;97223.66;;;7.36;65.72
71126;BME280;58785;55.566;38.058;2023-10-08T10:22:48;97219.94;;;7.30;65.73
71126;BME280;58785;55.566;38.058;2023-10-08T10:25:16;97230.34;;;7.25;65.76
71126;BME280;58785;55.566;38.058;2023-10-08T10:30:31;97233.97;;;7.17;66.45
71126;BME280;58785;55.566;38.058;2023-10-08T10:33:01;97229.44;;;7.11;66.26
71126;BME280;58785;55.566;38.058;2023-10-08T10:35:29;97232.09;;;7.05;66.53
71126;BME280;58785;55.566;38.058;2023-10-08T10:37:56;97229.84;;;7.02;66.76
71126;BME280;58785;55.566;38.058;2023-10-08T10:40:29;97242.84;;;6.97;67.30
71126;BME280;58785;55.566;38.058;2023-10-08T10:43:06;97244.66;;;6.96;66.68
71126;BME280;58785;55.566;38.058;2023-10-08T10:45:42;97230.56;;;6.89;66.97
71126;BME280;58785;55.566;38.058;2023-10-08T10:48:13;97239.38;;;6.96;66.55
71126;BME280;58785;55.566;38.058;2023-10-08T10:50:48;97239.84;;;7.06;67.08
71126;BME280;58785;55.566;38.058;2023-10-08T10:53:38;97234.72;;;7.05;66.52
71126;BME280;58785;55.566;38.058;2023-10-08T10:56:14;97244.13;;;7.07;67.68
71126;BME280;58785;55.566;38.058;2023-10-08T10:59:03;97247.19;;;7.11;67.64
71126;BME280;58785;55.566;38.058;2023-10-08T11:01:46;97234.72;;;7.05;67.27
71126;BME280;58785;55.566;38.058;2023-10-08T11:04:21;97244.31;;;7.06;66.64
71126;BME280;58785;55.566;38.058;2023-10-08T11:07:03;97231.47;;;7.03;67.49
71126;BME280;58785;55.566;38.058;2023-10-08T11:09:34;97235.31;;;7.00;67.21
71126;BME280;58785;55.566;38.058;2023-10-08T11:12:06;97234.28;;;7.01;67.21
71126;BME280;58785;55.566;38.058;2023-10-08T11:14:42;97239.78;;;7.00;67.53
71126;BME280;58785;55.566;38.058;2023-10-08T11:17:13;97246.28;;;6.97;67.36
71126;BME280;58785;55.566;38.058;2023-10-08T11:19:45;97236.31;;;6.93;67.42
71126;BME280;58785;55.566;38.058;2023-10-08T11:22:17;97236.06;;;6.87;67.53
71126;BME280;58785;55.566;38.058;2023-10-08T11:24:45;97239.91;;;6.85;67.66
71126;BME280;58785;55.566;38.058;2023-10-08T11:27:18;97250.66;;;6.77;68.21
71126;BME280;58785;55.566;38.058;2023-10-08T11:30:04;97243.47;;;6.71;69.12
71126;BME280;58785;55.566;38.058;2023-10-08T11:32:36;97252.50;;;6.76;68.40
71126;BME280;58785;55.566;38.058;2023-10-08T11:35:04;97255.19;;;6.83;68.26
71126;BME280;58785;55.566;38.058;2023-10-08T11:37:46;97244.75;;;6.81;69.30
71126;BME280;58785;55.566;38.058;2023-10-08T11:40:26;97241.69;;;6.78;69.95
71126;BME280;58785;55.566;38.058;2023-10-08T11:43:05;97247.94;;;6.70;69.21
71126;BME280;58785;55.566;38.058;2023-10-08T11:45:34;97248.13;;;6.62;69.68
71126;BME280;58785;55.566;38.058;2023-10-08T11:48:14;97252.97;;;6.58;70.44
71126;BME280;58785;55.566;38.058;2023-10-08T11:50:48;97249.22;;;6.46;70.49
71126;BME280;58785;55.566;38.058;2023-10-08T11:53:22;97257.75;;;6.42;71.22
71126;BME280;58785;55.566;38.058;2023-10-08T11:55:50;97254.84;;;6.37;71.55
71126;BME280;58785;55.566;38.058;2023-10-08T11:58:22;97262.59;;;6.38;71.45
71126;BME280;58785;55.566;38.058;2023-10-08T12:01:03;97272.78;;;6.41;71.60
71126;BME280;58785;55.566;38.058;2023-10-08T12:03:29;97258.22;;;6.30;72.00
71126;BME280;58785;55.566;38.058;2023-10-08T12:05:57;97271.31;;;6.32;72.17
71126;BME280;58785;55.566;38.058;2023-10-08T12:08:26;97263.50;;;6.24;72.04
71126;BME280;58785;55.566;38.058;2023-10-08T12:10:53;97268.53;;;6.19;71.86
71126;BME280;58785;55.566;38.058;2023-10-08T12:13:25;97264.63;;;6.15;72.94
71126;BME280;58785;55.566;38.058;2023-10-08T12:15:53;97273.78;;;6.12;72.95
71126;BME280;58785;55.566;38.058;2023-10-08T12:18:31;97276.22;;;6.14;72.94
71126;BME280;58785;55.566;38.058;2023-10-08T12:21:00;97267.00;;;6.10;72.70
71126;BME280;58785;55.566;38.058;2023-10-08T12:23:27;97276.16;;;6.07;73.64
71126;BME280;58785;55.566;38.058;2023-10-08T12:25:55;97264.81;;;5.92;73.28
71126;BME280;58785;55.566;38.058;2023-10-08T12:28:31;97268.09;;;5.94;73.39
71126;BME280;58785;55.566;38.058;2023-10-08T12:31:00;97263.06;;;5.84;74.30
71126;BME280;58785;55.566;38.058;2023-10-08T12:33:29;97283.75;;;5.81;74.40
71126;BME280;58785;55.566;38.058;2023-10-08T12:35:57;97264.19;;;5.75;74.36
71126;BME280;58785;55.566;38.058;2023-10-08T12:38:24;97269.22;;;5.70;74.40
71126;BME280;58785;55.566;38.058;2023-10-08T12:40:54;97266.41;;;5.71;74.71
71126;BME280;58785;55.566;38.058;2023-10-08T12:43:21;97264.59;;;5.72;74.76
71126;BME280;58785;55.566;38.058;2023-10-08T12:45:54;97275.78;;;5.74;74.51
71126;BME280;58785;55.566;38.058;2023-10-08T12:48:23;97274.34;;;5.71;74.81
71126;BME280;58785;55.566;38.058;2023-10-08T12:50:50;97263.78;;;5.57;74.76
71126;BME280;58785;55.566;38.058;2023-10-08T12:53:26;97274.78;;;5.60;75.00
71126;BME280;58785;55.566;38.058;2023-10-08T12:56:09;97278.34;;;5.67;75.17
71126;BME280;58785;55.566;38.058;2023-10-08T12:58:44;97275.06;;;5.65;74.53
71126;BME280;58785;55.566;38.058;2023-10-08T13:01:15;97271.59;;;5.65;75.05
71126;BME280;58785;55.566;38.058;2023-10-08T13:03:44;97280.06;;;5.60;75.15
71126;BME280;58785;55.566;38.058;2023-10-08T13:06:20;97273.72;;;5.55;75.45
71126;BME280;58785;55.566;38.058;2023-10-08T13:08:55;97283.84;;;5.51;75.37
71126;BME280;58785;55.566;38.058;2023-10-08T13:11:22;97266.91;;;5.45;75.56
71126;BME280;58785;55.566;38.058;2023-10-08T13:13:50;97277.66;;;5.44;75.89
71126;BME280;58785;55.566;38.058;2023-10-08T13:16:17;97277.03;;;5.42;75.91
71126;BME280;58785;55.566;38.058;2023-10-08T13:18:44;97285.78;;;5.42;75.80
71126;BME280;58785;55.566;38.058;2023-10-08T13:21:10;97279.41;;;5.37;76.04
71126;BME280;58785;55.566;38.058;2023-10-08T13:23:36;97283.88;;;5.36;75.78
71126;BME280;58785;55.566;38.058;2023-10-08T13:26:02;97276.31;;;5.33;76.24
71126;BME280;58785;55.566;38.058;2023-10-08T13:28:34;97287.97;;;5.39;75.94
71126;BME280;58785;55.566;38.058;2023-10-08T13:31:04;97272.38;;;5.29;76.17